createdAt,value
2022-11-06T00:02:07.873Z,74.90
2022-11-06T00:04:41.742Z,74.90
2022-11-06T00:07:08.871Z,75.00
2022-11-06T00:09:42.762Z,75.20
2022-11-06T00:12:16.890Z,75.30
2022-11-06T00:14:56.754Z,75.20
2022-11-06T00:17:30.760Z,75.10
2022-11-06T00:20:04.769Z,74.90
2022-11-06T00:22:36.970Z,74.90
2022-11-06T00:25:13.714Z,74.90
2022-11-06T00:27:49.750Z,74.70
2022-11-06T00:30:23.701Z,74.70
2022-11-06T00:32:57.780Z,74.60
2022-11-06T00:35:24.890Z,74.60
2022-11-06T00:37:58.731Z,74.60
2022-11-06T00:40:32.842Z,74.70
2022-11-06T00:43:06.821Z,74.70
2022-11-06T00:45:40.801Z,74.70
2022-11-06T00:48:07.890Z,74.70
2022-11-06T00:50:41.763Z,74.80
2022-11-06T00:53:08.873Z,74.90
2022-11-06T00:55:35.960Z,75.20
2022-11-06T00:58:09.911Z,75.30
2022-11-06T01:00:37.204Z,75.40
2022-11-06T01:03:10.782Z,75.40
2022-11-06T01:05:37.991Z,75.60
2022-11-06T01:08:12.069Z,75.70
2022-11-06T01:10:45.731Z,75.60
2022-11-06T01:13:26.751Z,75.60
2022-11-06T01:16:07.730Z,75.40
2022-11-06T01:18:42.765Z,75.30
2022-11-06T01:21:19.770Z,75.30
2022-11-06T01:23:48.064Z,75.20
2022-11-06T01:26:37.364Z,75.00
2022-11-06T01:29:15.800Z,75.00
2022-11-06T01:31:43.272Z,75.30
2022-11-06T01:34:12.521Z,75.00
2022-11-06T01:36:46.730Z,75.10
2022-11-06T01:39:15.680Z,74.90
2022-11-06T01:41:54.770Z,74.60
2022-11-06T01:44:34.323Z,74.60
2022-11-06T01:47:10.763Z,74.70
2022-11-06T01:49:39.090Z,74.70
2022-11-06T01:52:18.761Z,74.60
2022-11-06T01:54:49.671Z,74.80
2022-11-06T01:57:23.767Z,74.50
2022-11-06T01:59:54.851Z,74.40
2022-11-06T02:02:29.054Z,74.30
2022-11-06T02:04:56.377Z,74.40
2022-11-06T02:07:30.810Z,74.50
2022-11-06T02:09:57.982Z,74.60
2022-11-06T02:12:49.729Z,74.80
2022-11-06T02:15:37.930Z,75.20
2022-11-06T02:18:28.841Z,75.30
2022-11-06T02:21:32.990Z,75.30
2022-11-06T02:24:30.770Z,75.60
2022-11-06T02:27:29.733Z,75.70
2022-11-06T02:30:11.600Z,75.70
2022-11-06T02:33:03.730Z,75.80
2022-11-06T02:35:54.021Z,75.90
2022-11-06T02:38:32.750Z,75.80
2022-11-06T02:41:03.881Z,75.70
2022-11-06T02:43:50.742Z,75.90
2022-11-06T02:46:34.985Z,75.90
2022-11-06T02:49:34.743Z,75.60
2022-11-06T02:52:08.276Z,75.60
2022-11-06T02:54:45.726Z,75.60
2022-11-06T02:57:15.958Z,75.80
2022-11-06T03:00:09.796Z,75.90
2022-11-06T03:02:51.843Z,75.90
2022-11-06T03:05:34.753Z,76.00
2022-11-06T03:08:46.916Z,76.10
2022-11-06T03:11:31.761Z,76.10
2022-11-06T03:14:30.716Z,76.20
2022-11-06T03:17:20.670Z,76.10
2022-11-06T03:20:22.770Z,76.10
2022-11-06T03:23:06.185Z,76.10
2022-11-06T03:25:57.736Z,76.00
2022-11-06T03:28:38.452Z,75.70
2022-11-06T03:31:21.744Z,75.30
2022-11-06T03:34:03.737Z,75.50
2022-11-06T03:36:47.419Z,75.70
2022-11-06T03:39:37.725Z,75.70
2022-11-06T03:42:15.711Z,75.80
2022-11-06T03:44:48.776Z,75.70
2022-11-06T03:47:49.714Z,75.80
2022-11-06T03:50:38.367Z,75.90
2022-11-06T03:53:35.736Z,75.80
2022-11-06T03:56:12.683Z,75.30
2022-11-06T03:58:50.784Z,75.10
2022-11-06T04:01:24.171Z,75.50
2022-11-06T04:04:08.739Z,75.60
2022-11-06T04:06:38.042Z,75.40
2022-11-06T04:09:32.740Z,75.40
2022-11-06T04:12:36.727Z,75.10
2022-11-06T04:15:14.597Z,74.80
2022-11-06T04:17:48.782Z,74.90
2022-11-06T04:20:45.731Z,74.90
2022-11-06T04:23:41.762Z,74.90
2022-11-06T04:26:36.376Z,74.90
2022-11-06T04:29:24.771Z,75.10
2022-11-06T04:32:09.090Z,75.30
2022-11-06T04:35:04.779Z,75.30
2022-11-06T04:38:16.276Z,74.80
2022-11-06T04:40:53.717Z,74.60
2022-11-06T04:43:33.777Z,74.40
2022-11-06T04:46:09.756Z,74.50
2022-11-06T04:48:41.398Z,74.50
2022-11-06T04:51:18.771Z,74.50
2022-11-06T04:53:54.823Z,74.60
2022-11-06T04:56:41.346Z,74.80
2022-11-06T04:59:22.947Z,74.80
2022-11-06T05:01:51.176Z,74.80
2022-11-06T05:04:18.743Z,74.60
2022-11-06T05:06:52.744Z,74.60
2022-11-06T05:09:26.819Z,74.60
2022-11-06T05:12:00.757Z,74.40
2022-11-06T05:14:34.546Z,74.60
2022-11-06T05:17:07.792Z,74.50
2022-11-06T05:19:41.753Z,74.60
2022-11-06T05:22:34.756Z,74.60
2022-11-06T05:25:01.880Z,74.60
2022-11-06T05:27:35.797Z,74.30
2022-11-06T05:30:09.780Z,74.20
2022-11-06T05:32:43.742Z,74.20
2022-11-06T05:35:10.813Z,74.10
2022-11-06T05:37:44.750Z,74.10
2022-11-06T05:40:18.822Z,74.00
2022-11-06T05:42:52.729Z,74.10
2022-11-06T05:45:19.787Z,74.30
2022-11-06T05:47:46.903Z,74.20
2022-11-06T05:50:20.753Z,74.20
2022-11-06T05:52:47.902Z,74.20
2022-11-06T05:55:21.768Z,74.60
2022-11-06T05:57:55.775Z,74.60
2022-11-06T06:00:22.923Z,74.50
2022-11-06T06:02:50.178Z,74.50
2022-11-06T06:05:24.783Z,74.50
2022-11-06T06:07:51.874Z,74.30
2022-11-06T06:10:25.818Z,74.20
2022-11-06T06:12:59.958Z,74.30
2022-11-06T06:15:40.753Z,74.30
2022-11-06T06:18:09.544Z,74.20
2022-11-06T06:20:36.669Z,74.30
2022-11-06T06:23:10.775Z,74.50
2022-11-06T06:25:37.896Z,74.70
2022-11-06T06:28:12.121Z,74.60
2022-11-06T06:30:45.751Z,74.50
2022-11-06T06:33:19.814Z,74.10
2022-11-06T06:35:46.932Z,74.00
2022-11-06T06:38:20.762Z,74.10
2022-11-06T06:40:47.963Z,74.20
2022-11-06T06:43:21.832Z,74.30
2022-11-06T06:45:49.009Z,74.10
2022-11-06T06:48:22.750Z,73.90
2022-11-06T06:50:49.803Z,73.80
2022-11-06T06:53:23.775Z,73.90
2022-11-06T06:55:50.900Z,73.80
2022-11-06T06:58:25.164Z,74.00
2022-11-06T07:00:52.769Z,74.30
2022-11-06T07:03:26.800Z,74.20
2022-11-06T07:05:54.460Z,74.30
2022-11-06T07:08:27.848Z,74.40
2022-11-06T07:11:00.586Z,74.40
2022-11-06T07:13:41.820Z,74.50
2022-11-06T07:16:11.021Z,74.50
2022-11-06T07:18:39.375Z,74.40
2022-11-06T07:21:14.810Z,74.60
2022-11-06T07:23:48.811Z,74.60
2022-11-06T07:26:22.941Z,74.70
2022-11-06T07:28:56.781Z,74.60
2022-11-06T07:31:23.939Z,74.60
2022-11-06T07:33:54.119Z,74.40
2022-11-06T07:36:27.779Z,74.50
2022-11-06T07:38:54.930Z,74.60
2022-11-06T07:41:28.783Z,74.60
2022-11-06T07:43:55.833Z,74.90
2022-11-06T07:46:29.791Z,75.10
2022-11-06T07:48:56.984Z,75.20
2022-11-06T07:51:30.837Z,75.20
2022-11-06T07:53:57.928Z,75.20
2022-11-06T07:56:25.059Z,75.20
2022-11-06T07:58:58.778Z,75.00
2022-11-06T08:01:26.074Z,75.30
2022-11-06T08:03:59.871Z,75.30
2022-11-06T08:06:27.100Z,75.10
2022-11-06T08:09:00.931Z,74.90
2022-11-06T08:11:34.840Z,74.90
2022-11-06T08:14:08.642Z,75.10
2022-11-06T08:16:42.904Z,75.10
2022-11-06T08:19:10.114Z,75.10
2022-11-06T08:21:43.840Z,75.10
2022-11-06T08:24:11.315Z,75.10
2022-11-06T08:26:38.720Z,75.20
2022-11-06T08:29:12.870Z,75.30
2022-11-06T08:31:40.292Z,75.40
2022-11-06T08:34:15.824Z,75.40
2022-11-06T08:36:50.581Z,75.60
2022-11-06T08:39:23.850Z,75.60
2022-11-06T08:41:51.040Z,75.80
2022-11-06T08:44:24.886Z,75.90
2022-11-06T08:46:52.505Z,76.00
2022-11-06T08:49:26.842Z,76.10
2022-11-06T08:51:54.859Z,76.10
2022-11-06T08:54:28.870Z,76.10
2022-11-06T08:56:58.060Z,76.20
2022-11-06T08:59:31.842Z,76.20
2022-11-06T09:01:59.131Z,76.30
2022-11-06T09:04:36.097Z,76.20
2022-11-06T09:07:06.131Z,76.20
2022-11-06T09:09:39.792Z,76.20
2022-11-06T09:12:07.343Z,76.40
2022-11-06T09:14:48.808Z,76.30
2022-11-06T09:17:16.053Z,76.30
2022-11-06T09:19:43.619Z,76.20
2022-11-06T09:22:17.781Z,76.10
2022-11-06T09:25:02.639Z,76.10
2022-11-06T09:27:37.764Z,76.20
2022-11-06T09:30:11.781Z,76.10
2022-11-06T09:32:45.758Z,76.20
2022-11-06T09:35:12.988Z,76.20
2022-11-06T09:37:46.800Z,76.20
2022-11-06T09:40:38.698Z,76.30
2022-11-06T09:44:06.585Z,76.40
2022-11-06T09:46:44.411Z,76.50
2022-11-06T09:49:26.774Z,76.70
2022-11-06T09:52:02.423Z,76.60
2022-11-06T09:55:00.698Z,76.10
2022-11-06T09:57:40.389Z,75.80
2022-11-06T10:00:18.881Z,75.20
2022-11-06T10:02:53.923Z,75.00
2022-11-06T10:05:36.910Z,75.20
2022-11-06T10:08:28.795Z,75.40
2022-11-06T10:11:14.239Z,75.40
2022-11-06T10:14:09.903Z,75.40
2022-11-06T10:17:19.846Z,75.20
2022-11-06T10:20:33.540Z,75.00
2022-11-06T10:23:52.860Z,74.70
2022-11-06T10:26:34.984Z,74.60
2022-11-06T10:29:15.555Z,74.50
2022-11-06T10:32:00.885Z,74.50
2022-11-06T10:34:42.886Z,74.30
2022-11-06T10:37:27.874Z,74.30
2022-11-06T10:39:57.753Z,74.30
2022-11-06T10:42:40.795Z,74.30
2022-11-06T10:45:23.995Z,74.40
2022-11-06T10:48:06.011Z,74.70
2022-11-06T10:50:55.918Z,74.80
2022-11-06T10:53:31.905Z,74.70
2022-11-06T10:56:22.856Z,74.60
2022-11-06T10:58:50.075Z,74.30
2022-11-06T11:01:24.101Z,74.30
2022-11-06T11:03:51.985Z,74.10
2022-11-06T11:06:25.893Z,74.20
2022-11-06T11:08:53.208Z,73.90
2022-11-06T11:11:32.803Z,73.60
2022-11-06T11:14:19.777Z,72.50
2022-11-06T11:16:53.787Z,72.30
2022-11-06T11:19:39.433Z,71.20
2022-11-06T11:22:32.830Z,70.90
2022-11-06T11:25:12.818Z,71.00
2022-11-06T11:27:52.814Z,72.00
2022-11-06T11:30:36.859Z,73.10
2022-11-06T11:33:24.509Z,73.60
2022-11-06T11:35:59.851Z,72.90
2022-11-06T11:38:39.029Z,72.20
2022-11-06T11:41:10.012Z,72.40
2022-11-06T11:43:43.817Z,71.70
2022-11-06T11:46:28.433Z,70.80
2022-11-06T11:49:05.060Z,69.80
2022-11-06T11:51:42.682Z,69.20
2022-11-06T11:54:26.895Z,69.30
2022-11-06T11:57:15.910Z,69.00
2022-11-06T12:00:18.894Z,69.20
2022-11-06T12:03:05.955Z,69.00
2022-11-06T12:05:47.870Z,68.40
2022-11-06T12:08:42.891Z,68.60
2022-11-06T12:11:22.865Z,68.70
2022-11-06T12:14:31.827Z,68.60
2022-11-06T12:17:23.184Z,68.40
2022-11-06T12:20:04.804Z,68.50
2022-11-06T12:22:44.857Z,68.80
2022-11-06T12:25:40.855Z,68.80
2022-11-06T12:28:17.284Z,68.80
2022-11-06T12:30:54.846Z,68.60
2022-11-06T12:33:59.641Z,68.50
2022-11-06T12:36:22.820Z,68.50
2022-11-06T12:39:03.339Z,68.20
2022-11-06T12:41:41.800Z,68.30
2022-11-06T12:44:14.793Z,68.20
2022-11-06T12:46:53.811Z,68.30
2022-11-06T12:49:58.531Z,68.30
2022-11-06T12:52:51.850Z,68.30
2022-11-06T12:55:38.888Z,68.20
2022-11-06T12:58:52.964Z,68.10
2022-11-06T13:01:41.798Z,68.00
2022-11-06T13:04:28.872Z,68.00
2022-11-06T13:07:13.020Z,67.90
2022-11-06T13:10:16.942Z,67.90
2022-11-06T13:13:36.043Z,67.90
2022-11-06T13:16:33.055Z,67.80
2022-11-06T13:19:18.878Z,67.80
2022-11-06T13:21:52.022Z,67.60
2022-11-06T13:24:34.890Z,67.70
2022-11-06T13:27:30.099Z,67.80
2022-11-06T13:30:09.939Z,67.80
2022-11-06T13:32:39.770Z,67.70
2022-11-06T13:35:19.945Z,67.60
2022-11-06T13:37:50.204Z,67.30
2022-11-06T13:40:39.909Z,66.70
2022-11-06T13:43:16.795Z,66.40
2022-11-06T13:46:04.120Z,66.40
2022-11-06T13:48:44.520Z,66.20
2022-11-06T13:51:52.946Z,65.80
2022-11-06T13:54:25.950Z,65.20
2022-11-06T13:57:41.879Z,64.90
2022-11-06T14:00:14.824Z,64.70
2022-11-06T14:02:52.098Z,64.50
2022-11-06T14:05:46.563Z,64.20
2022-11-06T14:08:35.929Z,63.90
2022-11-06T14:11:16.605Z,63.60
2022-11-06T14:14:20.937Z,63.10
2022-11-06T14:17:18.985Z,63.20
2022-11-06T14:19:50.280Z,63.50
2022-11-06T14:22:38.952Z,62.70
2022-11-06T14:25:27.589Z,62.90
2022-11-06T14:28:01.018Z,63.20
2022-11-06T14:31:11.118Z,63.30
2022-11-06T14:33:48.911Z,63.30
2022-11-06T14:36:25.101Z,63.20
2022-11-06T14:39:00.973Z,63.10
2022-11-06T14:41:38.801Z,62.80
2022-11-06T14:44:20.129Z,62.80
2022-11-06T14:46:59.950Z,62.80
2022-11-06T14:49:48.959Z,62.50
2022-11-06T14:52:20.509Z,62.50
2022-11-06T14:55:08.190Z,62.30
2022-11-06T14:57:53.714Z,62.10
2022-11-06T15:00:50.947Z,62.10
2022-11-06T15:03:38.930Z,62.00
2022-11-06T15:06:43.810Z,62.10
2022-11-06T15:09:32.920Z,61.80
2022-11-06T15:12:04.980Z,62.00
2022-11-06T15:14:45.890Z,62.10
2022-11-06T15:17:23.186Z,62.00
2022-11-06T15:20:20.945Z,62.10
2022-11-06T15:22:58.013Z,62.10
2022-11-06T15:25:34.976Z,62.10
2022-11-06T15:28:14.767Z,62.00
2022-11-06T15:31:15.935Z,61.80
2022-11-06T15:34:05.561Z,61.70
2022-11-06T15:36:46.956Z,61.80
2022-11-06T15:39:32.547Z,61.80
2022-11-06T15:42:06.945Z,62.00
2022-11-06T15:44:46.887Z,62.20
2022-11-06T15:47:26.127Z,62.20
2022-11-06T15:50:28.906Z,62.30
2022-11-06T15:53:17.219Z,62.30
2022-11-06T15:56:15.731Z,62.40
2022-11-06T15:58:44.715Z,62.60
2022-11-06T16:01:18.929Z,62.50
2022-11-06T16:03:51.668Z,62.60
2022-11-06T16:06:27.066Z,62.80
2022-11-06T16:08:54.285Z,63.00
2022-11-06T16:11:27.965Z,63.00
2022-11-06T16:14:02.312Z,63.00
2022-11-06T16:16:45.877Z,63.20
2022-11-06T16:19:32.001Z,63.20
2022-11-06T16:22:26.907Z,63.20
2022-11-06T16:25:00.746Z,63.30
2022-11-06T16:27:39.871Z,63.30
2022-11-06T16:30:07.810Z,63.30
2022-11-06T16:32:48.883Z,63.30
2022-11-06T16:35:36.832Z,63.40
2022-11-06T16:41:12.167Z,63.50
2022-11-06T16:43:45.875Z,63.50
2022-11-06T16:46:13.032Z,63.50
2022-11-06T16:48:51.982Z,63.60
2022-11-06T16:51:34.057Z,63.60
2022-11-06T16:54:08.921Z,63.70
2022-11-06T16:56:36.119Z,63.70
2022-11-06T16:59:21.966Z,63.70
2022-11-06T17:01:49.305Z,63.70
2022-11-06T17:04:32.967Z,63.70
2022-11-06T17:07:00.216Z,63.80
2022-11-06T17:09:36.918Z,63.60
2022-11-06T17:12:11.924Z,63.50
2022-11-06T17:14:56.960Z,63.60
2022-11-06T17:17:34.260Z,63.70
2022-11-06T17:20:11.977Z,63.80
2022-11-06T17:22:46.117Z,64.00
2022-11-06T17:25:13.845Z,64.00
2022-11-06T17:27:48.074Z,64.10
2022-11-06T17:30:16.460Z,64.00
2022-11-06T17:32:43.995Z,64.00
2022-11-06T17:35:18.155Z,64.00
2022-11-06T17:37:52.135Z,64.80
2022-11-06T17:40:19.781Z,64.70
2022-11-06T17:42:54.135Z,64.90
2022-11-06T17:45:22.022Z,64.90
2022-11-06T17:47:56.127Z,64.90
2022-11-06T17:50:24.015Z,64.80
2022-11-06T17:52:58.199Z,64.70
2022-11-06T17:55:25.867Z,64.70
2022-11-06T17:58:00.136Z,64.80
2022-11-06T18:00:29.714Z,64.90
2022-11-06T18:03:05.229Z,64.90
2022-11-06T18:05:32.865Z,64.90
2022-11-06T18:08:07.026Z,65.00
2022-11-06T18:10:34.606Z,65.00
2022-11-06T18:13:09.016Z,65.10
2022-11-06T18:15:44.210Z,65.90
2022-11-06T18:18:19.089Z,66.30
2022-11-06T18:20:52.205Z,65.50
2022-11-06T18:23:27.050Z,65.30
2022-11-06T18:25:58.414Z,65.20
2022-11-06T18:28:33.114Z,65.30
2022-11-06T18:31:08.135Z,65.50
2022-11-06T18:33:42.065Z,65.50
2022-11-06T18:36:18.117Z,65.40
2022-11-06T18:38:46.027Z,65.50
2022-11-06T18:41:24.125Z,65.50
2022-11-06T18:44:04.125Z,65.50
2022-11-06T18:46:32.127Z,65.50
2022-11-06T18:49:00.088Z,65.50
2022-11-06T18:51:38.626Z,65.50
2022-11-06T18:54:08.940Z,65.60
2022-11-06T18:56:44.065Z,65.60
2022-11-06T18:59:22.121Z,65.50
2022-11-06T19:01:57.290Z,65.60
2022-11-06T19:04:26.701Z,65.70
2022-11-06T19:07:01.490Z,65.60
2022-11-06T19:09:36.105Z,65.50
2022-11-06T19:12:04.022Z,65.60
2022-11-06T19:14:52.165Z,65.60
2022-11-06T19:17:19.867Z,65.80
2022-11-06T19:19:47.966Z,65.90
2022-11-06T19:22:22.087Z,65.90
2022-11-06T19:24:49.760Z,65.80
2022-11-06T19:27:24.046Z,66.00
2022-11-06T19:29:59.107Z,65.80
2022-11-06T19:32:33.071Z,65.80
2022-11-06T19:35:00.730Z,65.90
2022-11-06T19:37:36.390Z,65.90
2022-11-06T19:40:06.083Z,65.90
2022-11-06T19:42:41.115Z,65.80
2022-11-06T19:45:16.116Z,65.90
2022-11-06T19:47:43.891Z,66.00
2022-11-06T19:50:11.576Z,66.00
2022-11-06T19:52:48.409Z,66.00
2022-11-06T19:55:27.837Z,66.20
2022-11-06T19:58:05.221Z,66.20
2022-11-06T20:00:32.956Z,66.20
2022-11-06T20:03:07.125Z,66.20
2022-11-06T20:05:35.245Z,66.20
2022-11-06T20:08:10.074Z,66.20
2022-11-06T20:10:38.334Z,66.00
2022-11-06T20:13:13.320Z,66.00
2022-11-06T20:16:02.904Z,66.00
2022-11-06T20:18:38.113Z,65.80
2022-11-06T20:21:07.923Z,66.10
2022-11-06T20:23:43.084Z,66.30
2022-11-06T20:26:10.319Z,66.40
2022-11-06T20:28:45.105Z,66.60
2022-11-06T20:31:13.720Z,66.70
2022-11-06T20:33:48.115Z,66.60
2022-11-06T20:36:30.119Z,66.40
2022-11-06T20:39:00.456Z,66.10
2022-11-06T20:41:36.129Z,66.20
2022-11-06T20:44:03.664Z,66.40
2022-11-06T20:46:38.099Z,66.40
2022-11-06T20:49:05.772Z,66.50
2022-11-06T20:52:11.558Z,66.70
2022-11-06T20:54:27.754Z,67.00
2022-11-06T20:57:02.111Z,66.90
2022-11-06T20:59:29.755Z,67.00
2022-11-06T21:02:04.164Z,67.10
2022-11-06T21:04:31.570Z,67.10
2022-11-06T21:06:58.852Z,67.20
2022-11-06T21:09:33.119Z,67.20
2022-11-06T21:12:00.384Z,67.40
2022-11-06T21:14:35.075Z,67.50
2022-11-06T21:17:08.978Z,67.60
2022-11-06T21:19:43.099Z,67.60
2022-11-06T21:22:10.293Z,67.60
2022-11-06T21:24:44.128Z,67.80
2022-11-06T21:27:11.385Z,67.70
2022-11-06T21:29:38.609Z,67.80
2022-11-06T21:32:13.137Z,67.80
2022-11-06T21:34:40.235Z,68.00
2022-11-06T21:37:14.056Z,68.10
2022-11-06T21:39:41.294Z,68.20
2022-11-06T21:42:14.944Z,68.50
2022-11-06T21:44:49.004Z,68.60
2022-11-06T21:47:22.954Z,68.70
2022-11-06T21:49:54.180Z,68.70
2022-11-06T21:52:48.000Z,68.70
2022-11-06T21:55:40.109Z,68.70
2022-11-06T21:58:14.160Z,68.60
2022-11-06T22:00:41.562Z,68.70
2022-11-06T22:03:16.138Z,68.70
2022-11-06T22:05:44.104Z,68.70
2022-11-06T22:08:11.367Z,68.70
2022-11-06T22:10:44.900Z,69.00
2022-11-06T22:13:18.928Z,69.30
2022-11-06T22:16:00.944Z,69.20
2022-11-06T22:18:36.966Z,69.30
2022-11-06T22:21:25.917Z,69.30
2022-11-06T22:24:00.070Z,69.30
2022-11-06T22:26:33.194Z,69.50
2022-11-06T22:29:09.934Z,69.80
2022-11-06T22:31:36.994Z,70.00
2022-11-06T22:34:10.898Z,69.90
2022-11-06T22:36:44.917Z,69.80
2022-11-06T22:39:12.751Z,69.90
2022-11-06T22:41:46.901Z,70.00
2022-11-06T22:44:20.940Z,70.10
2022-11-06T22:46:47.987Z,70.00
2022-11-06T22:49:15.032Z,69.70
2022-11-06T22:51:49.092Z,69.70
2022-11-06T22:54:16.173Z,69.80
2022-11-06T22:56:49.919Z,69.90
2022-11-06T22:59:23.923Z,70.20
2022-11-06T23:01:50.998Z,70.30
2022-11-06T23:04:24.949Z,70.50
2022-11-06T23:06:58.998Z,70.60
2022-11-06T23:09:26.123Z,70.60
2022-11-06T23:11:59.932Z,70.80
2022-11-06T23:14:34.927Z,70.90
2022-11-06T23:17:08.934Z,70.90
2022-11-06T23:19:36.090Z,71.00
2022-11-06T23:22:27.908Z,71.10
2022-11-06T23:24:56.196Z,71.10
2022-11-06T23:27:31.067Z,71.20
2022-11-06T23:30:00.889Z,71.20
2022-11-06T23:32:29.087Z,71.30
2022-11-06T23:35:04.669Z,71.40
2022-11-06T23:37:32.142Z,71.50
2022-11-06T23:40:05.971Z,71.50
2022-11-06T23:42:39.942Z,71.60
2022-11-06T23:45:26.089Z,71.60
2022-11-06T23:48:04.506Z,71.50
2022-11-06T23:50:41.017Z,71.60
2022-11-06T23:53:15.318Z,71.80
2022-11-06T23:55:43.123Z,71.80
2022-11-06T23:58:16.967Z,71.80
